Bayfield, CO (81122)

6:52 AM MST on December 11, 2016 (GMT -0700)
| | Change Station

Elev -9999 ft 0.00 °N, 0.00 °E | Updated 19 seconds ago

Overcast
Overcast
45 °F
Feels Like 41 °F
N
6
Wind Variable Wind from North
Gusts mph

Today
High -- | Low -- °F
--% Chance of Precip.
Yesterday
High -- | Low -- °F
Precip. -- in
Pressure 30.04 in
Visibility 5.0 miles
Clouds Few 1800 ft
Overcast 2600 ft
Windchill 41 °F
Dew Point 34 °F
Humidity 65%
Rainfall --
Snow Depth Not available.
7:14 AM 4:53 PM
Waxing Gibbous, 91% visible
METAR KDRO 111253Z AUTO 21003KT 5SM -SN BR FEW018 OVC026 M01/M03 A3000 RMK AO2 UPE48SNB48 SLP170 P0002 T10111028
Pressure 30.04 in
Visibility 5.0 miles
Clouds Few 1800 ft
Overcast 2600 ft
Windchill 41 °F
Dew Point 34 °F
Humidity 65%
Rainfall --
Snow Depth Not available.
7:14 AM 4:53 PM
Waxing Gibbous, 91% visible
METAR KDRO 111253Z AUTO 21003KT 5SM -SN BR FEW018 OVC026 M01/M03 A3000 RMK AO2 UPE48SNB48 SLP170 P0002 T10111028

10-Day Weather Forecast

Almanac

Astronomy

Dec. 11, 2016 Rise Set
Actual Time
Civil Twilight
Nautical Twilight
Astronomical Twilight
Moon
Length of Visible Light
Length of Day
Tomorrow will be .
, % of the Moon is Illuminated

Today's Extremes

State Highs State Lows

Community

WunderPhotos

Upload Photos

1,956,708 photos uploaded!

WunderBlog® & News

Nearby

Air Quality

  Air Quality AQ Index Pollutant
Not available.

Snow Depth

Station Depth Elevation

Earthquake Activity

City Distance Mag. Time & Date
Minimum magnitude displayed is 2.5.

Coastal Water Temperatures

Place Temperature

Stations

Nearby Weather Stations

Station Location Temp. Windchill Dew Point Humidity Wind Precip. Elev Updated Type
                   

Watches & Warnings

There are currently no watches in effect.